Station: Macquarie Island  

  Atmospheric Gas Attenuation - ITU Rec 676-11   ----------------- dB/100km -----------------
Date Time Temp RH % AH g/m3 Dew Point Wind Direction Speed kph Gust kph Barometer mB Rainfall Since 9am 24GHz 47GHz 76GHz 122GHz 134GHz 241GHz
04/09 22:10 2.7 84 4.9 0.3 44 56 974.2 1 12.1 21.5 28.3 74.1 58.6 198.1
04/09 22:00 2.6 84 4.87 0.2 46 59 974.1 1 12.0 21.5 28.2 73.9 58.3 197.0
04/09 21:50 2.7 87 5.07 0.8 46 59 974 1 12.4 21.7 28.9 75.9 60.8 205.8
04/09 21:40 2.5 88 5.06 0.7 44 57 973.9 1 12.4 21.8 28.9 76.0 60.8 205.8
04/09 21:30 2.3 88 5 0.5 46 63 974 1 12.3 21.7 28.8 75.5 60.2 203.6
04/09 21:20 3.1 87 5.21 1.2 39 50 973.6 1 12.7 21.9 29.3 76.9 62.3 211.0
04/09 21:10 3.1 86 5.15 1 48 67 973.8 1 12.6 21.8 29.1 76.3 61.5 208.3
04/09 21:00 3.2 83 5.01 0.6 48 57 973.5 1 12.3 21.5 28.5 74.7 59.6 201.7
04/09 20:50 3.2 84 5.07 0.8 48 57 973.5 1 12.4 21.6 28.7 75.4 60.4 204.4
04/09 20:40 3.1 86 5.15 1 46 56 973.5 1 12.6 21.8 29.1 76.3 61.5 208.3
04/09 20:30 2.9 85 5.02 0.6 50 61 973.6 1 12.3 21.6 28.6 75.1 60.0 202.9
04/09 20:20 2.7 83 4.84 0.1 54 76 973.5 1 11.9 21.4 28.0 73.5 57.8 195.3
04/09 20:10 3.4 84 5.14 1 44 52 973.3 1 12.6 21.7 28.9 75.9 61.1 207.0
04/09 20:00 3.4 85 5.2 1.1 44 52 973.5 1 12.7 21.8 29.1 76.5 61.9 209.7
04/09 19:50 3.2 87 5.25 1.3 43 52 973.7 1 12.8 21.9 29.4 77.3 62.7 212.6
04/09 19:40 2.8 90 5.28 1.3 39 52 973.7 1 12.9 22.0 29.7 78.0 63.4 215.0
04/09 19:30 2.7 91 5.31 1.4 41 48 973.8 1 12.9 22.1 29.8 78.4 63.9 216.7
04/09 19:20 2.5 92 5.29 1.3 39 50 973.9 1 12.9 22.1 29.8 78.4 63.8 216.4
04/09 19:10 2.2 92 5.19 1 41 46 973.9 1 12.7 22.1 29.6 77.6 62.8 212.6
04/09 19:00 2.1 92 5.15 0.9 41 48 973.9 1 12.6 22.0 29.4 77.3 62.3 211.0
04/09 18:50 2.3 93 5.28 1.3 35 43 974 1 12.9 22.2 29.9 78.5 63.9 216.5
04/09 18:40 2.2 92 5.19 1 32 39 974.2 1 12.7 22.1 29.6 77.7 62.8 212.6
04/09 18:30 2.2 91 5.13 0.9 35 46 974.2 1 12.6 22.0 29.3 77.0 62.0 209.9
04/09 18:20 2.4 89 5.09 0.8 37 44 974.4 0.8 12.5 21.9 29.1 76.4 61.3 207.6
04/09 18:10 2.8 83 4.87 0.2 44 65 974.4 0.6 12.0 21.4 28.1 73.7 58.2 196.6
04/09 18:00 3.8 83 5.21 1.2 35 43 974.1 0.4 12.7 21.7 29.1 76.3 61.7 209.2
04/09 17:50 3.6 82 5.08 0.8 39 46 974.1 0.4 12.4 21.6 28.6 75.1 60.2 203.9
04/09 17:40 3.8 82 5.15 1 35 43 974.2 0.4 12.6 21.6 28.8 75.7 61.0 206.5
04/09 17:30 3.8 84 5.27 1.4 37 46 974.4 0.4 12.8 21.8 29.3 76.9 62.5 212.0
04/09 17:20 3.7 83 5.18 1.1 41 48 974.4 0.4 12.6 21.7 29.0 76.1 61.5 208.2
04/09 17:10 3.7 86 5.36 1.6 37 46 974.4 0.4 13.0 22.0 29.7 78.0 63.8 216.3
04/09 17:00 3.2 88 5.31 1.4 35 43 974.5 0.4 12.9 22.0 29.7 78.0 63.5 215.5
04/09 16:50 3 86 5.12 0.9 44 57 974.6 0.4 12.5 21.8 29.0 76.2 61.2 207.4
04/09 16:40 3.9 81 5.12 0.9 43 54 974.3 0.4 12.5 21.5 28.7 75.3 60.5 205.0
04/09 16:30 4 80 5.09 0.9 41 50 974.5 0.4 12.4 21.5 28.5 74.9 60.1 203.4
04/09 16:20 3.9 81 5.12 0.9 43 56 974.6 0.4 12.5 21.6 28.7 75.3 60.5 205.0
04/09 16:10 3.6 84 5.2 1.2 41 57 974.6 0.4 12.7 21.8 29.1 76.4 61.8 209.4
04/09 16:00 3.5 88 5.42 1.7 41 50 974.5 0.4 13.2 22.1 30.0 78.8 64.7 219.6
04/09 15:50 3.2 88 5.31 1.4 43 50 974.6 0.4 12.9 22.0 29.7 78.0 63.5 215.5
04/09 15:40 2.9 88 5.2 1.1 50 67 974.6 0.4 12.7 21.9 29.4 77.1 62.4 211.3
04/09 15:30 3.9 83 5.25 1.3 46 56 974.5 0.4 12.8 21.8 29.2 76.6 62.2 210.8
04/09 15:20 3.8 85 5.34 1.5 44 56 974.6 0.4 13.0 21.9 29.6 77.7 63.4 215.2
04/09 15:10 3.7 84 5.24 1.3 48 57 974.6 0.4 12.8 21.8 29.2 76.7 62.2 210.9
04/09 15:00 3.7 84 5.24 1.3 48 57 974.6 0.4 12.8 21.8 29.2 76.7 62.2 210.9
04/09 14:50 3.7 87 5.43 1.7 48 67 974.6 0.4 13.2 22.1 30.0 78.7 64.7 219.5
04/09 14:40 3.7 83 5.18 1.1 37 67 974.4 0.4 12.6 21.7 29.0 76.1 61.5 208.2
04/09 14:30 3.9 85 5.37 1.6 32 41 974.7 0.2 13.0 22.0 29.7 77.9 63.8 216.3
04/09 14:20 4 81 5.15 1 35 44 974.7 0.2 12.6 21.6 28.8 75.5 60.8 206.1
04/09 14:10 4.5 81 5.33 1.5 32 41 974.7 0.2 12.9 21.7 29.3 76.9 62.7 212.8
04/09 14:00 4.5 79 5.2 1.2 35 41 974.8 0.2 12.6 21.5 28.8 75.6 61.1 207.1
04/09 13:50 4.5 78 5.13 1 39 44 974.9 0.2 12.5 21.4 28.5 74.9 60.2 204.0
04/09 13:40 4.5 79 5.2 1.2 35 41 974.8 0.2 12.6 21.5 28.8 75.6 61.1 207.1
04/09 13:30 4.7 80 5.33 1.6 35 43 975 0.2 12.9 21.7 29.2 76.7 62.6 212.4
04/09 13:20 4.8 81 5.44 1.8 35 39 975.1 0.2 13.2 21.9 29.6 77.8 63.9 217.0
04/09 13:10 5.1 80 5.48 1.9 35 41 975 0.2 13.2 21.8 29.7 77.9 64.2 218.0
04/09 13:00 4.9 81 5.47 1.9 33 41 975.1 0.2 13.2 21.9 29.7 78.0 64.2 218.1
04/09 12:50 4.8 81 5.44 1.8 35 41 975 0.2 13.2 21.9 29.6 77.8 63.9 217.0
04/09 12:40 4.9 82 5.54 2.1 35 43 975 0.2 13.4 22.0 30.0 78.7 65.1 221.2
04/09 12:30 5.4 82 5.73 2.6 35 46 975 0.2 13.8 22.2 30.5 80.2 67.1 228.4
04/09 12:20 5 81 5.51 2 28 32 975 0.2 13.3 21.9 29.8 78.3 64.7 219.6
04/09 12:10 5.5 80 5.62 2.3 30 35 975.2 0.2 13.5 22.0 30.1 78.9 65.7 223.2
04/09 12:00 5.4 81 5.66 2.4 32 37 975.2 0.2 13.6 22.1 30.3 79.5 66.3 225.3
04/09 11:50 5 82 5.58 2.2 33 39 975.3 0.2 13.5 22.0 30.1 79.0 65.6 222.8
04/09 11:40 4.8 82 5.5 2 33 39 975.3 0.2 13.3 22.0 29.9 78.4 64.7 219.8
04/09 11:30 4.6 85 5.63 2.3 35 46 975.4 0.2 13.6 22.2 30.5 80.0 66.6 226.2
04/09 11:20 4.2 84 5.42 1.7 39 52 975.4 0.2 13.1 22.0 29.8 78.2 64.2 217.9
04/09 11:10 4.4 85 5.55 2.1 33 39 975.5 0.2 13.4 22.1 30.2 79.4 65.7 223.2
04/09 11:00 4.1 86 5.51 2 32 54 975.6 0.2 13.3 22.2 30.2 79.3 65.5 222.3
04/09 10:50 5 87 5.92 3 24 32 975.4 0.2 14.2 22.6 31.4 82.6 70.0 238.3
04/09 10:40 4.8 87 5.84 2.8 26 30 975.5 0.2 14.0 22.5 31.2 82.0 69.1 235.2
04/09 10:30 4.9 87 5.88 2.9 26 30 975.5 0.2 14.1 22.5 31.3 82.3 69.6 236.8
04/09 10:20 4.7 88 5.87 2.9 28 32 975.6 0.2 14.1 22.6 31.4 82.4 69.6 236.9
04/09 10:10 4.3 86 5.58 2.2 30 35 975.7 0.2 13.5 22.2 30.4 79.8 66.2 224.9
04/09 10:00 4.3 86 5.58 2.2 33 39 975.6 0.2 13.5 22.2 30.4 79.8 66.2 224.9
04/09 09:50 4.3 87 5.65 2.3 32 37 975.6 0.2 13.6 22.3 30.7 80.5 67.1 228.1
04/09 09:40 4.3 87 5.65 2.3 30 33 975.5 0.2 13.6 22.3 30.7 80.5 67.1 228.0
04/09 09:30 4.1 89 5.7 2.5 28 32 975.5 0.2 13.7 22.5 30.9 81.2 67.9 230.9
04/09 09:20 3.5 89 5.48 1.9 33 44 975.5 0.2 13.3 22.3 30.3 79.5 65.6 222.6
04/09 09:10 3.7 84 5.24 1.3 32 50 975.5 0.2 12.8 21.8 29.3 76.8 62.3 211.1
04/09 09:00 4.9 85 5.74 2.6 26 30 975.3 0 13.8 22.3 30.8 80.8 67.7 230.3
04/09 08:50 4.4 86 5.62 2.3 26 32 975.4 1.8 13.6 22.2 30.5 80.1 66.6 226.4
04/09 08:40 3.7 82 5.11 0.9 35 46 975.5 1.8 12.5 21.6 28.8 75.5 60.6 205.3
04/09 08:30 4.5 85 5.59 2.2 32 35 975.3 1.8 13.5 22.2 30.3 79.7 66.1 224.7
04/09 08:20 4.4 87 5.69 2.4 30 35 975.3 1.8 13.7 22.4 30.8 80.8 67.5 229.5
04/09 08:10 4.2 89 5.74 2.6 28 30 975.3 1.8 13.8 22.5 31.0 81.5 68.3 232.4
04/09 08:00 4 88 5.6 2.2 26 30 975.4 1.8 13.5 22.3 30.6 80.3 66.7 226.6
04/09 07:50 3.3 88 5.34 1.5 26 35 975.3 1.8 13.0 22.1 29.8 78.2 63.9 216.7
04/09 07:40 3.1 88 5.27 1.3 32 44 975.3 1.8 12.8 22.0 29.6 77.7 63.1 214.1
04/09 07:30 3.5 87 5.35 1.5 30 35 975.2 1.8 13.0 22.0 29.8 78.1 63.9 216.6
04/09 07:20 3.9 84 5.31 1.4 33 43 975.3 1.8 12.9 21.9 29.5 77.3 63.0 213.7
04/09 07:10 4.3 85 5.52 2 32 37 974.9 1.8 13.4 22.1 30.1 79.1 65.4 222.0
04/09 07:00 4.2 86 5.55 2.1 30 33 974.9 1.8 13.4 22.2 30.3 79.5 65.8 223.7
04/09 06:50 4 86 5.47 1.9 30 33 974.9 1.8 13.3 22.1 30.0 78.9 65.0 220.6
04/09 06:40 3.9 88 5.56 2.1 24 28 974.9 1.8 13.5 22.3 30.4 79.9 66.2 225.0
04/09 06:30 3.9 88 5.56 2.1 24 32 975 1.8 13.5 22.3 30.4 79.9 66.2 225.0
04/09 06:20 3.9 88 5.56 2.1 26 32 974.9 1.8 13.5 22.3 30.4 79.9 66.2 225.0
04/09 06:10 3.7 87 5.43 1.7 30 35 974.9 1.8 13.2 22.1 30.0 78.8 64.7 219.6
04/09 06:00 3.6 87 5.39 1.6 26 32 974.7 1.8 13.1 22.1 29.9 78.4 64.3 218.0
04/09 05:50 3.5 88 5.42 1.7 28 33 974.7 1.8 13.2 22.1 30.0 78.8 64.7 219.7
04/09 05:40 3.2 89 5.37 1.6 26 32 974.7 1.8 13.1 22.1 29.9 78.6 64.3 218.2

Last Refresh: 04-Sep-2026 21:49:16

Bureau of Meteorology